createdAt,value
2019-01-14T00:01:33.505Z,88.77
2019-01-14T00:04:00.233Z,87.84
2019-01-14T00:06:27.032Z,88.47
2019-01-14T00:08:53.788Z,87.12
2019-01-14T00:11:20.532Z,86.51
2019-01-14T00:13:47.297Z,86.89
2019-01-14T00:16:14.041Z,88.96
2019-01-14T00:18:40.804Z,88.21
2019-01-14T00:21:07.548Z,89.35
2019-01-14T00:23:34.321Z,86.31
2019-01-14T00:26:01.085Z,86.51
2019-01-14T00:28:27.844Z,88.48
2019-01-14T00:30:54.596Z,87.60
2019-01-14T00:33:21.382Z,86.17
2019-01-14T00:35:48.103Z,86.74
2019-01-14T00:38:14.911Z,87.57
2019-01-14T00:40:41.620Z,87.00
2019-01-14T00:43:08.394Z,87.31
2019-01-14T00:45:35.128Z,89.11
2019-01-14T00:48:01.891Z,88.68
2019-01-14T00:50:28.624Z,89.71
2019-01-14T00:52:55.380Z,90.44
2019-01-14T00:55:22.121Z,91.53
2019-01-14T00:57:48.896Z,93.03
2019-01-14T01:00:18.945Z,92.84
2019-01-14T01:02:45.708Z,93.02
2019-01-14T01:05:12.450Z,90.37
2019-01-14T01:07:39.208Z,91.20
2019-01-14T01:10:06.980Z,91.65
2019-01-14T01:12:33.748Z,90.16
2019-01-14T01:15:00.500Z,88.21
2019-01-14T01:17:27.264Z,87.14
2019-01-14T01:19:54.024Z,82.92
2019-01-14T01:22:20.805Z,82.89
2019-01-14T01:24:47.689Z,84.39
2019-01-14T01:27:14.449Z,83.57
2019-01-14T01:29:41.223Z,83.16
2019-01-14T01:32:07.966Z,84.44
2019-01-14T01:34:34.825Z,82.44
2019-01-14T01:37:01.576Z,82.64
2019-01-14T01:39:28.359Z,84.45
2019-01-14T01:41:55.104Z,85.53
2019-01-14T01:44:21.880Z,86.94
2019-01-14T01:46:48.622Z,86.58
2019-01-14T01:49:15.420Z,83.79
2019-01-14T01:51:42.157Z,84.78
2019-01-14T01:54:08.924Z,84.10
2019-01-14T01:56:35.667Z,84.70
2019-01-14T01:59:02.434Z,85.77
2019-01-14T02:01:29.281Z,85.00
2019-01-14T02:03:56.048Z,86.22
2019-01-14T02:06:22.788Z,83.20
2019-01-14T02:08:49.556Z,84.40
2019-01-14T02:11:16.307Z,83.71
2019-01-14T02:13:43.082Z,82.75
2019-01-14T02:16:09.832Z,83.59
2019-01-14T02:18:36.605Z,83.26
2019-01-14T02:21:03.343Z,83.39
2019-01-14T02:23:30.104Z,82.35
2019-01-14T02:25:56.968Z,79.34
2019-01-14T02:28:23.739Z,80.24
2019-01-14T02:30:50.476Z,80.16
2019-01-14T02:33:17.240Z,78.20
2019-01-14T02:35:43.988Z,81.82
2019-01-14T02:38:10.763Z,82.54
2019-01-14T02:40:37.698Z,79.31
2019-01-14T02:43:04.453Z,80.55
2019-01-14T02:45:31.252Z,79.30
2019-01-14T02:47:58.008Z,79.04
2019-01-14T02:50:24.768Z,78.21
2019-01-14T02:52:51.529Z,81.01
2019-01-14T02:55:18.280Z,81.58
2019-01-14T02:57:45.024Z,82.53
2019-01-14T03:00:15.211Z,83.54
2019-01-14T03:02:41.956Z,82.84
2019-01-14T03:05:08.758Z,81.30
2019-01-14T03:07:35.538Z,82.57
2019-01-14T03:10:02.315Z,81.73
2019-01-14T03:12:29.065Z,82.35
2019-01-14T03:14:55.837Z,81.86
2019-01-14T03:17:22.587Z,81.34
2019-01-14T03:19:49.365Z,81.55
2019-01-14T03:22:16.118Z,80.09
2019-01-14T03:24:42.896Z,80.00
2019-01-14T03:27:09.654Z,81.44
2019-01-14T03:29:36.416Z,81.77
2019-01-14T03:32:03.193Z,81.86
2019-01-14T03:34:29.928Z,82.62
2019-01-14T03:36:56.672Z,82.71
2019-01-14T03:39:23.483Z,83.39
2019-01-14T03:41:50.227Z,84.20
2019-01-14T03:44:16.988Z,84.37
2019-01-14T03:46:43.737Z,84.80
2019-01-14T03:49:10.493Z,83.73
2019-01-14T03:51:37.240Z,86.65
2019-01-14T03:54:03.992Z,87.44
2019-01-14T03:56:30.759Z,89.02
2019-01-14T03:58:57.487Z,90.06
2019-01-14T04:01:24.256Z,89.28
2019-01-14T04:03:51.010Z,89.66
2019-01-14T04:06:17.773Z,90.06
2019-01-14T04:08:44.508Z,89.46
2019-01-14T04:11:11.277Z,89.93
2019-01-14T04:13:38.120Z,88.58
2019-01-14T04:16:04.880Z,88.86
2019-01-14T04:18:31.640Z,89.20
2019-01-14T04:20:58.417Z,89.35
2019-01-14T04:23:25.209Z,89.24
2019-01-14T04:25:51.977Z,88.50
2019-01-14T04:28:18.726Z,89.32
2019-01-14T04:30:45.631Z,89.05
2019-01-14T04:33:12.385Z,88.42
2019-01-14T04:35:39.147Z,88.23
2019-01-14T04:38:05.901Z,88.47
2019-01-14T04:40:32.680Z,87.96
2019-01-14T04:42:59.496Z,87.23
2019-01-14T04:45:26.262Z,86.69
2019-01-14T04:47:53.037Z,86.50
2019-01-14T04:50:20.533Z,86.67
2019-01-14T04:52:47.297Z,87.18
2019-01-14T04:55:14.088Z,86.90
2019-01-14T04:57:40.844Z,87.20
2019-01-14T05:00:13.580Z,86.14
2019-01-14T05:02:40.336Z,87.30
2019-01-14T05:05:07.114Z,87.37
2019-01-14T05:07:33.870Z,86.62
2019-01-14T05:10:00.594Z,86.23
2019-01-14T05:12:27.410Z,86.75
2019-01-14T05:14:54.101Z,86.20
2019-01-14T05:17:20.868Z,87.12
2019-01-14T05:19:47.615Z,86.62
2019-01-14T05:22:14.464Z,86.45
2019-01-14T05:24:41.248Z,86.67
2019-01-14T05:27:08.017Z,87.00
2019-01-14T05:29:34.764Z,86.42
2019-01-14T05:32:01.535Z,86.55
2019-01-14T05:34:28.293Z,87.47
2019-01-14T05:36:55.063Z,86.91
2019-01-14T05:39:21.823Z,86.94
2019-01-14T05:41:48.587Z,88.22
2019-01-14T05:44:15.347Z,88.39
2019-01-14T05:46:42.104Z,88.15
2019-01-14T05:49:08.968Z,88.18
2019-01-14T05:51:35.756Z,88.16
2019-01-14T05:54:02.512Z,89.03
2019-01-14T05:56:29.286Z,89.01
2019-01-14T05:58:56.040Z,88.08
2019-01-14T06:01:22.805Z,88.65
2019-01-14T06:03:49.545Z,87.92
2019-01-14T06:06:16.320Z,88.02
2019-01-14T06:08:43.127Z,89.04
2019-01-14T06:11:09.881Z,88.58
2019-01-14T06:13:36.616Z,87.70
2019-01-14T06:16:03.413Z,88.07
2019-01-14T06:18:30.152Z,87.81
2019-01-14T06:20:56.925Z,88.10
2019-01-14T06:23:23.680Z,87.82
2019-01-14T06:25:50.442Z,87.69
2019-01-14T06:28:17.179Z,87.61
2019-01-14T06:30:43.932Z,87.69
2019-01-14T06:33:10.809Z,87.10
2019-01-14T06:35:37.553Z,87.83
2019-01-14T06:38:04.360Z,86.62
2019-01-14T06:40:31.116Z,86.57
2019-01-14T06:42:57.894Z,87.62
2019-01-14T06:45:24.649Z,87.37
2019-01-14T06:47:51.420Z,86.79
2019-01-14T06:50:18.640Z,86.69
2019-01-14T06:52:45.455Z,87.51
2019-01-14T06:55:12.245Z,87.53
2019-01-14T06:57:39.136Z,87.57
2019-01-14T07:00:07.584Z,88.12
2019-01-14T07:02:34.361Z,87.61
2019-01-14T07:05:01.121Z,88.17
2019-01-14T07:07:27.904Z,88.47
2019-01-14T07:09:54.714Z,88.39
2019-01-14T07:12:21.441Z,88.45
2019-01-14T07:14:48.200Z,88.62
2019-01-14T07:17:14.964Z,88.35
2019-01-14T07:19:41.727Z,88.60
2019-01-14T07:22:08.501Z,88.30
2019-01-14T07:24:35.248Z,87.85
2019-01-14T07:27:02.025Z,88.53
2019-01-14T07:29:28.772Z,86.66
2019-01-14T07:31:55.569Z,87.18
2019-01-14T07:34:22.297Z,86.48
2019-01-14T07:36:49.064Z,85.86
2019-01-14T07:39:15.808Z,86.04
2019-01-14T07:41:42.585Z,84.92
2019-01-14T07:44:09.312Z,85.25
2019-01-14T07:46:36.076Z,85.87
2019-01-14T07:49:02.829Z,85.56
2019-01-14T07:51:29.600Z,85.43
2019-01-14T07:53:56.360Z,85.29
2019-01-14T07:56:23.165Z,85.92
2019-01-14T07:58:49.996Z,86.08
2019-01-14T08:01:16.735Z,85.46
2019-01-14T08:03:43.521Z,86.14
2019-01-14T08:06:10.307Z,86.43
2019-01-14T08:08:37.080Z,87.56
2019-01-14T08:11:03.836Z,87.62
2019-01-14T08:13:30.620Z,87.96
2019-01-14T08:15:57.377Z,87.20
2019-01-14T08:18:24.148Z,87.90
2019-01-14T08:20:50.916Z,87.93
2019-01-14T08:23:17.686Z,87.58
2019-01-14T08:25:44.451Z,87.70
2019-01-14T08:28:11.212Z,87.45
2019-01-14T08:30:37.976Z,87.64
2019-01-14T08:33:04.753Z,87.14
2019-01-14T08:35:31.500Z,85.88
2019-01-14T08:37:58.263Z,86.97
2019-01-14T08:40:25.026Z,86.46
2019-01-14T08:42:51.792Z,86.65
2019-01-14T08:45:18.552Z,87.42
2019-01-14T08:47:45.315Z,87.42
2019-01-14T08:50:14.292Z,87.23
2019-01-14T08:52:41.073Z,87.76
2019-01-14T08:55:07.836Z,88.27
2019-01-14T08:57:34.596Z,87.82
2019-01-14T09:00:01.357Z,88.27
2019-01-14T09:02:28.121Z,88.14
2019-01-14T09:04:54.872Z,88.20
2019-01-14T09:07:21.676Z,87.37
2019-01-14T09:09:48.416Z,87.53
2019-01-14T09:12:15.384Z,87.44
2019-01-14T09:14:42.136Z,87.48
2019-01-14T09:17:08.896Z,87.04
2019-01-14T09:19:35.713Z,86.74
2019-01-14T09:22:02.468Z,87.39
2019-01-14T09:24:29.261Z,87.41
2019-01-14T09:26:56.001Z,86.49
2019-01-14T09:29:22.774Z,86.25
2019-01-14T09:31:49.520Z,86.35
2019-01-14T09:34:16.292Z,86.51
2019-01-14T09:36:43.048Z,85.77
2019-01-14T09:39:09.808Z,85.69
2019-01-14T09:41:36.601Z,83.54
2019-01-14T09:44:03.424Z,83.59
2019-01-14T09:46:30.181Z,83.55
2019-01-14T09:48:56.990Z,84.02
2019-01-14T09:51:23.738Z,84.51
2019-01-14T09:53:50.508Z,84.99
2019-01-14T09:56:17.275Z,84.31
2019-01-14T09:58:44.241Z,83.69
2019-01-14T10:01:10.995Z,84.27
2019-01-14T10:03:37.978Z,83.54
2019-01-14T10:06:04.725Z,84.18
2019-01-14T10:08:32.819Z,83.67
2019-01-14T10:10:59.760Z,83.41
2019-01-14T10:13:26.690Z,83.51
2019-01-14T10:15:53.606Z,84.71
2019-01-14T10:18:20.590Z,83.72
2019-01-14T10:20:47.340Z,84.62
2019-01-14T10:23:14.167Z,85.06
2019-01-14T10:25:41.735Z,85.04
2019-01-14T10:28:08.517Z,84.26
2019-01-14T10:30:35.261Z,84.89
2019-01-14T10:33:02.108Z,83.70
2019-01-14T10:35:28.865Z,84.29
2019-01-14T10:37:55.724Z,83.53
2019-01-14T10:40:22.515Z,82.74
2019-01-14T10:42:49.253Z,82.64
2019-01-14T10:45:18.436Z,82.16
2019-01-14T10:47:45.311Z,83.55
2019-01-14T10:50:12.245Z,83.11
2019-01-14T10:52:39.092Z,82.55
2019-01-14T10:55:12.111Z,81.84
2019-01-14T10:57:32.775Z,82.09
2019-01-14T10:59:59.644Z,82.64
2019-01-14T11:02:26.447Z,82.18
2019-01-14T11:04:53.325Z,81.23
2019-01-14T11:07:20.180Z,80.72
2019-01-14T11:09:47.016Z,81.76
2019-01-14T11:12:13.840Z,81.20
2019-01-14T11:14:40.681Z,80.70
2019-01-14T11:17:07.502Z,80.20
2019-01-14T11:19:34.420Z,80.70
2019-01-14T11:22:01.225Z,81.05
2019-01-14T11:24:30.856Z,81.11
2019-01-14T11:26:58.696Z,80.49
2019-01-14T11:29:25.540Z,81.16
2019-01-14T11:31:52.312Z,80.10
2019-01-14T11:34:19.132Z,80.32
2019-01-14T11:36:45.941Z,79.53
2019-01-14T11:39:16.888Z,79.54
2019-01-14T11:41:43.636Z,80.34
2019-01-14T11:44:10.487Z,80.95
2019-01-14T11:46:37.333Z,80.28
2019-01-14T11:49:04.157Z,79.68
2019-01-14T11:51:31.089Z,80.72
2019-01-14T11:53:57.860Z,79.81
2019-01-14T11:56:24.664Z,80.07
2019-01-14T11:58:51.533Z,79.76
2019-01-14T12:01:18.287Z,81.58
2019-01-14T12:03:45.057Z,81.16
2019-01-14T12:06:11.883Z,81.04
2019-01-14T12:08:38.716Z,81.03
2019-01-14T12:11:05.459Z,82.01
2019-01-14T12:13:32.211Z,82.54
2019-01-14T12:15:58.986Z,84.42
2019-01-14T12:18:25.732Z,82.17
2019-01-14T12:20:52.508Z,83.56
2019-01-14T12:23:19.264Z,83.77
2019-01-14T12:25:46.057Z,84.96
2019-01-14T12:28:12.808Z,85.15
2019-01-14T12:30:39.581Z,84.75
2019-01-14T12:33:06.319Z,85.85
2019-01-14T12:35:33.099Z,85.93
2019-01-14T12:38:00.014Z,87.58
2019-01-14T12:40:26.900Z,86.48
2019-01-14T12:42:53.692Z,87.04
2019-01-14T12:45:20.545Z,89.88
2019-01-14T12:47:47.364Z,93.85
2019-01-14T12:50:14.227Z,95.55
2019-01-14T12:52:41.043Z,98.20
2019-01-14T12:55:08.926Z,100.00
2019-01-14T12:57:39.476Z,100.00
2019-01-14T13:00:09.454Z,100.00
2019-01-14T13:02:36.261Z,100.00
2019-01-14T13:05:04.064Z,100.00
2019-01-14T13:07:30.861Z,100.00
2019-01-14T13:09:57.599Z,100.00
2019-01-14T13:12:24.341Z,100.00
2019-01-14T13:14:51.176Z,100.00
2019-01-14T13:17:17.968Z,100.00
2019-01-14T13:19:44.778Z,100.00
2019-01-14T13:22:11.595Z,100.00
2019-01-14T13:24:38.694Z,100.00
2019-01-14T13:27:06.208Z,99.26
2019-01-14T13:29:32.957Z,98.04
2019-01-14T13:31:59.738Z,97.16
2019-01-14T13:34:26.568Z,97.49
2019-01-14T13:36:53.333Z,96.87
2019-01-14T13:39:20.078Z,96.13
2019-01-14T13:41:46.860Z,95.24
2019-01-14T13:44:13.612Z,94.73
2019-01-14T13:46:40.417Z,92.57
2019-01-14T13:49:07.176Z,89.56
2019-01-14T13:51:33.947Z,88.49
2019-01-14T13:54:00.686Z,90.05
2019-01-14T13:56:27.504Z,90.67
2019-01-14T13:58:54.247Z,90.83
2019-01-14T14:01:21.021Z,90.77
2019-01-14T14:03:47.800Z,90.85
2019-01-14T14:06:14.568Z,91.05
2019-01-14T14:08:41.329Z,90.75
2019-01-14T14:11:08.416Z,90.19
2019-01-14T14:13:35.180Z,90.99
2019-01-14T14:16:01.968Z,89.00
2019-01-14T14:18:28.740Z,89.52
2019-01-14T14:20:55.485Z,89.59
2019-01-14T14:23:22.271Z,88.34
2019-01-14T14:25:49.132Z,86.90
2019-01-14T14:28:15.923Z,89.38
2019-01-14T14:30:42.689Z,87.95
2019-01-14T14:33:09.437Z,86.92
2019-01-14T14:35:36.316Z,87.33
2019-01-14T14:38:03.842Z,87.88
2019-01-14T14:40:30.700Z,87.86
2019-01-14T14:42:57.441Z,88.47
2019-01-14T14:45:24.177Z,88.08
2019-01-14T14:47:50.952Z,89.55
2019-01-14T14:50:17.706Z,88.82
2019-01-14T14:52:44.476Z,88.76
2019-01-14T14:55:11.238Z,89.39
2019-01-14T14:57:38.084Z,89.45
2019-01-14T15:00:08.376Z,87.17
2019-01-14T15:02:35.152Z,87.58
2019-01-14T15:05:01.921Z,88.74
2019-01-14T15:07:28.692Z,89.01
2019-01-14T15:09:55.980Z,90.14
2019-01-14T15:12:22.224Z,88.09
2019-01-14T15:14:48.973Z,87.71
2019-01-14T15:17:15.742Z,86.99
2019-01-14T15:19:42.526Z,86.60
2019-01-14T15:22:09.284Z,86.81
2019-01-14T15:24:36.044Z,86.79
2019-01-14T15:27:02.814Z,86.45
2019-01-14T15:29:29.565Z,86.22
2019-01-14T15:31:56.336Z,85.99
2019-01-14T15:34:23.165Z,86.44
2019-01-14T15:36:50.002Z,85.70
2019-01-14T15:39:16.745Z,86.26
2019-01-14T15:41:43.512Z,86.83
2019-01-14T15:44:10.273Z,86.51
2019-01-14T15:46:37.027Z,87.01
2019-01-14T15:49:03.825Z,87.54
2019-01-14T15:51:30.596Z,87.90
2019-01-14T15:53:57.360Z,87.92
2019-01-14T15:56:24.140Z,88.21
2019-01-14T15:58:50.903Z,88.55
2019-01-14T16:01:17.656Z,88.82
2019-01-14T16:03:44.436Z,89.00
2019-01-14T16:06:11.667Z,89.64
2019-01-14T16:08:38.452Z,89.73
2019-01-14T16:11:05.389Z,91.32
2019-01-14T16:13:32.325Z,91.80
2019-01-14T16:15:59.063Z,91.21
2019-01-14T16:18:25.832Z,89.82
2019-01-14T16:20:52.601Z,88.32
2019-01-14T16:23:19.421Z,87.44
2019-01-14T16:25:46.164Z,87.03
2019-01-14T16:28:12.941Z,86.73
2019-01-14T16:30:39.736Z,86.12
2019-01-14T16:33:06.507Z,88.17
2019-01-14T16:35:33.245Z,87.98
2019-01-14T16:38:00.061Z,88.93
2019-01-14T16:40:26.816Z,90.15
2019-01-14T16:42:53.598Z,90.48
2019-01-14T16:45:22.984Z,90.12
2019-01-14T16:47:49.757Z,90.70
2019-01-14T16:50:16.533Z,90.95
2019-01-14T16:52:43.308Z,89.96
2019-01-14T16:55:10.077Z,90.29
2019-01-14T16:57:36.869Z,89.27
2019-01-14T17:00:04.545Z,89.07
2019-01-14T17:02:31.325Z,88.73
2019-01-14T17:04:58.080Z,89.33
2019-01-14T17:07:24.992Z,89.43
2019-01-14T17:09:53.739Z,89.36
2019-01-14T17:12:20.498Z,89.65
2019-01-14T17:14:47.249Z,90.10
2019-01-14T17:17:14.004Z,89.85
2019-01-14T17:19:40.772Z,89.74
2019-01-14T17:22:07.517Z,89.86
2019-01-14T17:24:34.280Z,90.56
2019-01-14T17:27:01.066Z,90.65
2019-01-14T17:29:27.829Z,91.29
2019-01-14T17:31:54.581Z,91.80
2019-01-14T17:34:21.352Z,93.64
2019-01-14T17:36:48.104Z,94.42
2019-01-14T17:39:14.885Z,94.75
2019-01-14T17:41:41.632Z,94.64
2019-01-14T17:44:08.391Z,93.68
2019-01-14T17:46:35.141Z,91.95
2019-01-14T17:49:01.936Z,90.44
2019-01-14T17:51:29.562Z,89.83
2019-01-14T17:53:56.333Z,89.62
2019-01-14T17:56:23.104Z,89.60
2019-01-14T17:58:49.884Z,88.80
2019-01-14T18:01:16.659Z,88.84
2019-01-14T18:03:43.580Z,87.76
2019-01-14T18:06:10.315Z,88.15
2019-01-14T18:08:37.072Z,88.05
2019-01-14T18:11:03.832Z,88.11
2019-01-14T18:13:30.642Z,88.49
2019-01-14T18:15:57.364Z,88.40
2019-01-14T18:18:24.141Z,88.41
2019-01-14T18:20:51.205Z,87.71
2019-01-14T18:23:17.972Z,87.88
2019-01-14T18:25:44.724Z,88.33
2019-01-14T18:28:11.479Z,87.90
2019-01-14T18:30:38.248Z,87.44
2019-01-14T18:33:04.985Z,87.72
2019-01-14T18:35:31.744Z,88.21
2019-01-14T18:37:58.510Z,86.90
2019-01-14T18:40:25.300Z,86.42
2019-01-14T18:42:52.205Z,86.13
2019-01-14T18:45:19.192Z,87.17
2019-01-14T18:47:45.937Z,86.63
2019-01-14T18:50:14.853Z,87.33
2019-01-14T18:52:41.609Z,87.09
2019-01-14T18:55:08.368Z,86.78
2019-01-14T18:57:35.144Z,86.21
2019-01-14T19:00:03.936Z,87.05
2019-01-14T19:02:30.696Z,87.94
2019-01-14T19:04:57.454Z,87.23
2019-01-14T19:07:24.220Z,87.64
2019-01-14T19:09:50.995Z,87.43
2019-01-14T19:12:17.853Z,88.11
2019-01-14T19:14:44.607Z,89.29
2019-01-14T19:17:11.372Z,89.81
2019-01-14T19:19:38.136Z,90.82
2019-01-14T19:22:04.872Z,91.26
2019-01-14T19:24:31.640Z,92.53
2019-01-14T19:26:58.378Z,93.71
2019-01-14T19:29:25.148Z,94.87
2019-01-14T19:31:51.903Z,96.34
2019-01-14T19:34:18.721Z,97.13
2019-01-14T19:36:45.554Z,97.88
2019-01-14T19:39:13.632Z,97.87
2019-01-14T19:41:40.426Z,97.33
2019-01-14T19:44:07.214Z,97.51
2019-01-14T19:46:33.993Z,97.22
2019-01-14T19:49:00.790Z,96.55
2019-01-14T19:51:28.645Z,97.20
2019-01-14T19:53:55.423Z,97.31
2019-01-14T19:56:22.216Z,96.82
2019-01-14T19:58:48.997Z,96.88
2019-01-14T20:01:15.785Z,97.21
2019-01-14T20:03:42.613Z,96.26
2019-01-14T20:06:10.389Z,96.41
2019-01-14T20:08:37.161Z,97.04
2019-01-14T20:11:09.171Z,97.25
2019-01-14T20:13:30.742Z,95.44
2019-01-14T20:16:00.309Z,95.66
2019-01-14T20:18:27.109Z,95.32
2019-01-14T20:20:53.907Z,94.88
2019-01-14T20:23:21.287Z,94.75
2019-01-14T20:25:48.097Z,94.50
2019-01-14T20:28:14.870Z,93.88
2019-01-14T20:30:42.677Z,92.87
2019-01-14T20:33:09.439Z,92.58
2019-01-14T20:35:36.258Z,92.34
2019-01-14T20:38:03.041Z,91.95
2019-01-14T20:40:29.812Z,91.71
2019-01-14T20:42:56.593Z,91.82
2019-01-14T20:45:23.402Z,92.36
2019-01-14T20:47:50.167Z,92.14
2019-01-14T20:50:17.924Z,92.53
2019-01-14T20:52:44.688Z,91.44
2019-01-14T20:55:11.478Z,92.45
2019-01-14T20:57:38.281Z,92.95
2019-01-14T21:00:10.409Z,92.45
2019-01-14T21:02:37.197Z,93.01
2019-01-14T21:05:04.452Z,93.34
2019-01-14T21:07:31.289Z,94.93
2019-01-14T21:09:58.086Z,94.46
2019-01-14T21:12:24.913Z,95.92
2019-01-14T21:14:51.724Z,95.89
2019-01-14T21:17:18.546Z,95.72
2019-01-14T21:19:45.376Z,94.23
2019-01-14T21:22:12.221Z,93.65
2019-01-14T21:24:39.036Z,93.67
2019-01-14T21:27:05.871Z,93.95
2019-01-14T21:29:32.664Z,93.68
2019-01-14T21:31:59.593Z,93.09
2019-01-14T21:34:26.404Z,92.59
2019-01-14T21:36:53.251Z,92.62
2019-01-14T21:39:20.068Z,92.43
2019-01-14T21:41:46.896Z,92.29
2019-01-14T21:44:13.709Z,91.95
2019-01-14T21:46:40.609Z,91.78
2019-01-14T21:49:07.434Z,90.90
2019-01-14T21:51:34.266Z,90.96
2019-01-14T21:54:01.112Z,91.00
2019-01-14T21:56:27.945Z,91.52
2019-01-14T21:58:54.761Z,92.24
2019-01-14T22:01:21.602Z,92.61
2019-01-14T22:03:48.417Z,92.27
2019-01-14T22:06:15.283Z,91.88
2019-01-14T22:08:42.078Z,91.98
2019-01-14T22:11:08.905Z,91.91
2019-01-14T22:13:35.709Z,91.39
2019-01-14T22:16:02.529Z,91.93
2019-01-14T22:18:29.368Z,92.89
2019-01-14T22:20:56.192Z,92.89
2019-01-14T22:23:23.061Z,93.32
2019-01-14T22:25:49.906Z,93.92
2019-01-14T22:28:16.749Z,94.68
2019-01-14T22:30:43.582Z,94.72
2019-01-14T22:33:10.482Z,95.83
2019-01-14T22:35:37.330Z,95.58
2019-01-14T22:38:04.154Z,95.63
2019-01-14T22:40:30.966Z,95.16
2019-01-14T22:42:57.784Z,93.56
2019-01-14T22:45:24.624Z,93.17
2019-01-14T22:47:51.428Z,93.21
2019-01-14T22:50:18.258Z,93.17
2019-01-14T22:52:45.069Z,92.86
2019-01-14T22:55:11.864Z,92.70
2019-01-14T22:57:38.709Z,91.79
2019-01-14T23:00:23.224Z,90.71
2019-01-14T23:02:50.021Z,90.10
2019-01-14T23:05:16.865Z,89.91
2019-01-14T23:07:43.669Z,89.57
2019-01-14T23:10:10.483Z,90.14
2019-01-14T23:12:37.290Z,89.51
2019-01-14T23:15:04.176Z,89.87
2019-01-14T23:17:31.125Z,88.41
2019-01-14T23:19:57.912Z,88.19
2019-01-14T23:22:24.712Z,88.55
2019-01-14T23:24:51.488Z,88.84
2019-01-14T23:27:18.318Z,88.28
2019-01-14T23:29:45.107Z,87.66
2019-01-14T23:32:11.904Z,87.78
2019-01-14T23:34:38.691Z,87.54
2019-01-14T23:37:05.528Z,88.27
2019-01-14T23:39:32.308Z,88.78
2019-01-14T23:42:00.580Z,88.95
2019-01-14T23:44:25.949Z,88.58
2019-01-14T23:46:52.686Z,88.36
2019-01-14T23:49:19.546Z,88.37
2019-01-14T23:51:46.325Z,87.60
2019-01-14T23:54:13.142Z,87.86
2019-01-14T23:56:39.947Z,87.95
2019-01-14T23:59:06.787Z,88.16
